createdAt,value
2019-01-06T00:01:45.998Z,4.70
2019-01-06T00:04:21.761Z,3.33
2019-01-06T00:06:59.786Z,5.23
2019-01-06T00:09:35.239Z,4.30
2019-01-06T00:12:12.069Z,5.07
2019-01-06T00:14:50.751Z,4.20
2019-01-06T00:19:28.450Z,4.80
2019-01-06T00:25:48.375Z,3.90
2019-01-06T00:28:27.123Z,4.40
2019-01-06T00:32:05.041Z,4.57
2019-01-06T00:34:46.743Z,3.47
2019-01-06T00:37:38.617Z,3.80
2019-01-06T00:40:15.125Z,4.90
2019-01-06T00:42:54.045Z,6.50
2019-01-06T00:45:35.723Z,7.10
2019-01-06T00:48:14.283Z,6.83
2019-01-06T00:51:08.337Z,9.67
2019-01-06T00:53:43.009Z,7.97
2019-01-06T00:58:22.695Z,8.83
2019-01-06T01:01:06.830Z,5.70
2019-01-06T01:03:41.649Z,7.37
2019-01-06T01:13:04.703Z,6.37
2019-01-06T01:15:48.215Z,6.07
2019-01-06T01:19:21.044Z,6.87
2019-01-06T01:21:57.263Z,5.97
2019-01-06T01:24:31.922Z,7.27
2019-01-06T01:27:07.329Z,5.17
2019-01-06T01:34:35.733Z,8.53
2019-01-06T01:37:11.039Z,7.17
2019-01-06T01:39:51.217Z,6.37
2019-01-06T01:42:24.633Z,5.53
2019-01-06T01:45:58.463Z,7.10
2019-01-06T01:48:32.819Z,7.73
2019-01-06T01:52:06.711Z,8.07
2019-01-06T01:55:39.321Z,7.83
2019-01-06T01:58:13.891Z,6.60
2019-01-06T02:00:48.051Z,8.00
2019-01-06T02:03:22.655Z,7.97
2019-01-06T02:05:57.624Z,7.43
2019-01-06T02:08:38.924Z,7.57
2019-01-06T02:11:29.526Z,8.40
2019-01-06T02:14:04.830Z,6.90
2019-01-06T02:17:39.578Z,8.23
2019-01-06T02:20:14.046Z,10.97
2019-01-06T02:22:56.258Z,9.53
2019-01-06T02:25:32.807Z,7.70
2019-01-06T02:30:11.546Z,8.07
2019-01-06T02:32:48.811Z,7.63
2019-01-06T02:35:23.347Z,9.70
2019-01-06T02:37:57.769Z,10.10
2019-01-06T02:40:31.986Z,10.40
2019-01-06T02:43:05.356Z,9.20
2019-01-06T02:45:38.659Z,9.83
2019-01-06T02:49:18.548Z,9.47
2019-01-06T02:52:51.679Z,9.90
2019-01-06T02:55:26.363Z,11.93
2019-01-06T02:58:30.966Z,9.93
2019-01-06T03:01:05.464Z,10.43
2019-01-06T03:03:40.139Z,9.33
2019-01-06T03:06:20.368Z,10.13
2019-01-06T03:08:54.869Z,11.33
2019-01-06T03:11:33.569Z,11.10
2019-01-06T03:14:08.979Z,11.90
2019-01-06T03:17:00.892Z,9.90
2019-01-06T03:20:32.859Z,9.43
2019-01-06T03:23:42.370Z,10.23
2019-01-06T03:26:19.663Z,9.93
2019-01-06T03:28:54.271Z,9.97
2019-01-06T03:31:29.773Z,8.87
2019-01-06T03:34:10.046Z,12.47
2019-01-06T03:36:46.275Z,10.60
2019-01-06T03:39:20.614Z,9.13
2019-01-06T03:41:57.884Z,10.50
2019-01-06T03:44:32.320Z,9.47
2019-01-06T03:47:11.652Z,8.60
2019-01-06T03:49:45.949Z,8.53
2019-01-06T03:52:20.707Z,10.10
2019-01-06T03:56:59.893Z,7.37
2019-01-06T03:59:34.131Z,7.77
2019-01-06T04:03:08.865Z,9.20
2019-01-06T04:05:43.242Z,7.60
2019-01-06T04:08:20.463Z,7.10
2019-01-06T04:10:54.905Z,8.17
2019-01-06T04:14:26.828Z,6.40
2019-01-06T04:17:07.912Z,6.90
2019-01-06T04:19:42.434Z,9.53
2019-01-06T04:23:14.559Z,9.80
2019-01-06T04:25:49.174Z,9.47
2019-01-06T04:30:32.335Z,8.90
2019-01-06T04:33:06.750Z,8.87
2019-01-06T04:35:40.010Z,10.67
2019-01-06T04:38:44.705Z,8.70
2019-01-06T04:41:19.024Z,8.07
2019-01-06T04:44:23.605Z,8.43
2019-01-06T04:48:01.428Z,9.50
2019-01-06T04:51:10.777Z,10.57
2019-01-06T04:54:50.496Z,9.33
2019-01-06T04:57:25.791Z,9.57
2019-01-06T05:00:04.949Z,10.13
2019-01-06T05:02:39.549Z,9.53
2019-01-06T05:05:12.845Z,10.47
2019-01-06T05:07:47.179Z,7.80
2019-01-06T05:11:19.416Z,8.93
2019-01-06T05:13:53.625Z,7.43
2019-01-06T05:16:29.921Z,8.40
2019-01-06T05:20:06.933Z,9.23
2019-01-06T05:22:41.122Z,7.43
2019-01-06T05:25:17.443Z,7.97
2019-01-06T05:27:51.523Z,8.30
2019-01-06T05:30:28.112Z,7.03
2019-01-06T05:33:04.408Z,6.80
2019-01-06T05:35:38.514Z,6.27
2019-01-06T05:38:13.070Z,6.80
2019-01-06T05:40:47.401Z,6.17
2019-01-06T05:43:21.815Z,7.43
2019-01-06T05:48:04.537Z,9.30
2019-01-06T05:52:41.604Z,7.27
2019-01-06T05:55:15.788Z,6.00
2019-01-06T05:57:57.041Z,8.43
2019-01-06T06:00:33.190Z,8.77
2019-01-06T06:03:11.286Z,7.77
2019-01-06T06:07:47.937Z,10.77
2019-01-06T06:12:23.806Z,9.47
2019-01-06T06:14:58.217Z,7.70
2019-01-06T06:17:32.701Z,7.83
2019-01-06T06:20:09.954Z,7.93
2019-01-06T06:22:46.111Z,7.03
2019-01-06T06:25:20.516Z,6.30
2019-01-06T06:29:58.337Z,8.43
2019-01-06T06:32:47.457Z,6.57
2019-01-06T06:35:24.469Z,6.93
2019-01-06T06:38:00.644Z,5.37
2019-01-06T06:40:35.060Z,6.93
2019-01-06T06:43:08.386Z,5.40
2019-01-06T06:46:12.857Z,6.30
2019-01-06T06:48:47.303Z,4.57
2019-01-06T06:52:19.338Z,4.90
2019-01-06T06:54:53.552Z,5.63
2019-01-06T06:57:42.282Z,7.10
2019-01-06T07:00:30.063Z,5.03
2019-01-06T07:03:15.289Z,5.53
2019-01-06T07:05:55.833Z,6.73
2019-01-06T07:08:44.339Z,4.63
2019-01-06T07:11:20.611Z,6.03
2019-01-06T07:13:54.953Z,5.57
2019-01-06T07:18:45.348Z,5.80
2019-01-06T07:21:19.869Z,5.97
2019-01-06T07:23:54.341Z,7.23
2019-01-06T07:26:40.707Z,7.70
2019-01-06T07:29:15.263Z,8.30
2019-01-06T07:31:53.417Z,8.77
2019-01-06T07:36:29.845Z,8.20
2019-01-06T07:39:13.906Z,8.00
2019-01-06T07:41:52.111Z,7.13
2019-01-06T07:44:41.355Z,9.83
2019-01-06T07:47:17.560Z,8.63
2019-01-06T07:49:57.084Z,8.97
2019-01-06T07:54:39.804Z,7.07
2019-01-06T07:57:14.265Z,7.10
2019-01-06T08:01:50.897Z,6.57
2019-01-06T08:04:32.355Z,6.20
2019-01-06T08:07:06.554Z,5.87
2019-01-06T08:09:41.076Z,5.30
2019-01-06T08:12:18.222Z,4.63
2019-01-06T08:14:51.545Z,5.73
2019-01-06T08:17:24.840Z,7.87
2019-01-06T08:19:59.205Z,5.67
2019-01-06T08:22:33.797Z,4.70
2019-01-06T08:25:08.219Z,6.37
2019-01-06T08:27:42.889Z,5.37
2019-01-06T08:30:20.261Z,5.10
2019-01-06T08:34:57.377Z,5.87
2019-01-06T08:37:34.315Z,5.13
2019-01-06T08:42:09.978Z,5.93
2019-01-06T08:44:44.284Z,7.93
2019-01-06T08:47:18.882Z,6.83
2019-01-06T08:49:52.473Z,6.40
2019-01-06T08:52:25.899Z,10.60
2019-01-06T08:55:00.243Z,5.57
2019-01-06T08:57:34.612Z,12.70
2019-01-06T09:00:12.911Z,8.20
2019-01-06T09:02:47.508Z,6.97
2019-01-06T09:05:22.090Z,3.77
2019-01-06T09:07:56.594Z,5.53
2019-01-06T09:15:20.244Z,7.73
2019-01-06T09:18:55.836Z,6.87
2019-01-06T09:21:30.269Z,7.20
2019-01-06T09:25:02.508Z,10.77
2019-01-06T09:27:56.157Z,10.77
2019-01-06T09:30:30.730Z,9.40
2019-01-06T09:35:11.647Z,10.17
2019-01-06T09:38:52.364Z,6.20
2019-01-06T09:41:27.051Z,5.30
2019-01-06T09:44:01.551Z,6.43
2019-01-06T09:46:39.396Z,9.60
2019-01-06T09:49:17.413Z,6.40
2019-01-06T09:51:56.521Z,7.50
2019-01-06T09:54:29.867Z,7.17
2019-01-06T09:57:04.264Z,9.03
2019-01-06T09:59:40.955Z,12.27
2019-01-06T10:02:26.240Z,10.07
2019-01-06T10:05:12.003Z,5.30
2019-01-06T10:07:49.216Z,5.37
2019-01-06T10:10:41.494Z,8.30
2019-01-06T10:13:20.460Z,7.57
2019-01-06T10:15:58.282Z,6.60
2019-01-06T10:19:13.185Z,6.23
2019-01-06T10:21:50.602Z,3.53
2019-01-06T10:26:30.589Z,4.20
2019-01-06T10:31:15.067Z,8.07
2019-01-06T10:34:00.323Z,6.27
2019-01-06T10:38:50.419Z,6.13
2019-01-06T10:44:10.641Z,3.53
2019-01-06T10:46:50.372Z,5.10
2019-01-06T10:49:30.474Z,4.53
2019-01-06T10:52:12.580Z,6.13
2019-01-06T10:54:53.939Z,9.63
2019-01-06T10:57:41.134Z,10.07
2019-01-06T11:00:17.954Z,4.97
2019-01-06T11:02:58.790Z,3.37
2019-01-06T11:06:15.909Z,3.47
2019-01-06T11:09:00.794Z,7.20
2019-01-06T11:11:43.778Z,3.00
2019-01-06T11:14:19.998Z,5.83
2019-01-06T11:17:00.363Z,5.47
2019-01-06T11:19:40.170Z,4.20
2019-01-06T11:22:20.042Z,6.97
2019-01-06T11:25:00.333Z,5.40
2019-01-06T11:28:09.614Z,3.60
2019-01-06T11:30:50.502Z,8.77
2019-01-06T11:33:40.496Z,9.40
2019-01-06T11:36:30.894Z,9.60
2019-01-06T11:44:05.817Z,6.27
2019-01-06T11:49:40.273Z,5.23
2019-01-06T11:52:17.855Z,7.37
2019-01-06T11:55:11.740Z,7.40
2019-01-06T11:57:51.938Z,6.37
2019-01-06T12:02:39.126Z,4.87
2019-01-06T12:05:16.806Z,3.47
2019-01-06T12:07:55.300Z,3.73
2019-01-06T12:10:36.915Z,3.37
2019-01-06T12:13:14.508Z,2.80
2019-01-06T12:15:56.105Z,7.90
2019-01-06T12:18:40.320Z,4.10
2019-01-06T12:21:26.865Z,3.83
2019-01-06T12:26:57.337Z,4.57
2019-01-06T12:29:43.562Z,3.93
2019-01-06T12:32:28.162Z,5.57
2019-01-06T12:35:05.594Z,3.53
2019-01-06T12:37:52.051Z,3.33
2019-01-06T13:16:45.297Z,9.77
2019-01-06T13:20:02.526Z,6.67
